createdAt,value
2022-09-30T00:02:51.725Z,4.46
2022-09-30T00:08:02.773Z,4.41
2022-09-30T00:13:13.931Z,4.38
2022-09-30T00:18:25.088Z,4.40
2022-09-30T00:23:36.304Z,4.36
2022-09-30T00:28:47.451Z,4.29
2022-09-30T00:33:56.725Z,4.26
2022-09-30T00:39:00.873Z,4.27
2022-09-30T00:44:05.093Z,4.24
2022-09-30T00:49:09.241Z,4.15
2022-09-30T00:54:13.418Z,4.11
2022-09-30T00:59:17.583Z,4.11
2022-09-30T01:04:21.773Z,4.06
2022-09-30T01:09:26.011Z,4.10
2022-09-30T01:14:30.039Z,4.00
2022-09-30T01:19:34.203Z,4.00
2022-09-30T01:24:38.392Z,3.97
2022-09-30T01:29:42.547Z,3.93
2022-09-30T01:34:46.691Z,3.88
2022-09-30T01:39:50.884Z,3.86
2022-09-30T01:44:55.084Z,3.92
2022-09-30T01:49:59.239Z,3.86
2022-09-30T01:55:03.357Z,3.93
2022-09-30T02:00:07.563Z,3.95
2022-09-30T02:05:11.725Z,3.90
2022-09-30T02:10:15.864Z,3.96
2022-09-30T02:15:19.984Z,3.93
2022-09-30T02:20:22.309Z,3.80
2022-09-30T02:25:26.621Z,3.70
2022-09-30T02:30:28.718Z,3.70
2022-09-30T02:35:32.883Z,3.70
2022-09-30T02:40:37.145Z,3.61
2022-09-30T02:45:41.216Z,3.69
2022-09-30T02:50:45.426Z,3.70
2022-09-30T02:55:49.545Z,3.65
2022-09-30T03:00:53.780Z,3.61
2022-09-30T03:05:57.906Z,3.61
2022-09-30T03:11:02.024Z,3.56
2022-09-30T03:16:06.225Z,3.50
2022-09-30T03:21:10.372Z,3.42
2022-09-30T03:26:14.543Z,3.40
2022-09-30T03:31:18.774Z,3.37
2022-09-30T03:36:22.850Z,3.53
2022-09-30T03:41:27.043Z,3.60
2022-09-30T03:46:31.242Z,3.47
2022-09-30T03:51:35.353Z,3.39
2022-09-30T03:56:39.511Z,3.60
2022-09-30T04:01:43.709Z,3.44
2022-09-30T04:06:47.835Z,3.35
2022-09-30T04:11:52.024Z,3.28
2022-09-30T04:16:54.281Z,3.25
2022-09-30T04:21:58.447Z,3.24
2022-09-30T04:27:02.642Z,3.30
2022-09-30T04:32:06.805Z,3.23
2022-09-30T04:37:11.275Z,3.19
2022-09-30T04:42:15.105Z,3.10
2022-09-30T04:47:19.296Z,3.06
2022-09-30T04:52:23.430Z,3.05
2022-09-30T04:57:27.575Z,3.13
2022-09-30T05:02:31.783Z,3.09
2022-09-30T05:07:35.961Z,3.03
2022-09-30T05:12:40.253Z,3.08
2022-09-30T05:17:44.242Z,3.05
2022-09-30T05:22:48.447Z,3.26
2022-09-30T05:27:52.647Z,3.17
2022-09-30T05:32:56.777Z,3.27
2022-09-30T05:38:00.937Z,3.18
2022-09-30T05:43:05.064Z,3.44
2022-09-30T05:48:09.271Z,3.44
2022-09-30T05:53:13.431Z,3.44
2022-09-30T05:58:17.594Z,3.57
2022-09-30T06:03:19.877Z,3.53
2022-09-30T06:08:24.029Z,3.51
2022-09-30T06:13:26.273Z,3.51
2022-09-30T06:18:30.470Z,3.64
2022-09-30T06:23:34.615Z,3.80
2022-09-30T06:28:38.813Z,4.02
2022-09-30T06:33:42.937Z,4.10
2022-09-30T06:38:47.111Z,4.16
2022-09-30T06:44:09.409Z,4.48
2022-09-30T06:49:04.970Z,4.74
2022-09-30T06:53:59.637Z,4.81
2022-09-30T06:59:03.756Z,4.92
2022-09-30T07:04:07.916Z,5.11
2022-09-30T07:09:12.203Z,5.24
2022-09-30T07:14:16.281Z,5.45
2022-09-30T07:19:20.409Z,5.65
2022-09-30T07:24:24.576Z,5.87
2022-09-30T07:29:36.650Z,6.01
2022-09-30T07:34:32.905Z,6.17
2022-09-30T07:39:37.070Z,6.22
2022-09-30T07:44:41.207Z,6.48
2022-09-30T07:49:45.418Z,6.74
2022-09-30T07:54:50.723Z,6.91
2022-09-30T07:59:51.844Z,7.15
2022-09-30T08:04:56.001Z,7.41
2022-09-30T08:09:58.378Z,7.69
2022-09-30T08:15:02.445Z,7.89
2022-09-30T08:20:13.083Z,8.15
2022-09-30T08:25:10.807Z,8.31
2022-09-30T08:30:14.911Z,8.51
2022-09-30T08:35:19.091Z,8.66
2022-09-30T08:40:23.209Z,8.82
2022-09-30T08:45:27.461Z,9.06
2022-09-30T08:50:31.559Z,9.33
2022-09-30T08:55:35.716Z,9.61
2022-09-30T09:00:40.060Z,9.87
2022-09-30T09:05:47.309Z,10.24
2022-09-30T09:10:48.209Z,10.55
2022-09-30T09:15:52.381Z,10.79
2022-09-30T09:20:56.553Z,11.26
2022-09-30T09:26:00.723Z,11.47
2022-09-30T09:31:04.853Z,11.61
2022-09-30T09:36:09.141Z,11.94
2022-09-30T09:41:13.202Z,12.13
2022-09-30T09:46:17.489Z,12.34
2022-09-30T09:51:21.481Z,12.52
2022-09-30T09:56:26.324Z,12.72
2022-09-30T10:01:27.978Z,12.90
2022-09-30T10:06:32.111Z,13.05
2022-09-30T10:11:34.372Z,13.25
2022-09-30T10:16:38.544Z,13.53
2022-09-30T10:21:42.704Z,13.70
2022-09-30T10:26:48.887Z,13.75
2022-09-30T10:31:51.040Z,13.89
2022-09-30T10:36:55.194Z,13.85
2022-09-30T10:41:59.347Z,14.16
2022-09-30T10:47:03.598Z,14.19
2022-09-30T10:52:07.649Z,14.53
2022-09-30T10:57:11.805Z,14.75
2022-09-30T11:02:16.014Z,14.92
2022-09-30T11:07:20.171Z,15.04
2022-09-30T11:12:24.298Z,15.21
2022-09-30T11:17:28.421Z,15.21
2022-09-30T11:22:32.625Z,15.44
2022-09-30T11:27:36.800Z,15.27
2022-09-30T11:37:45.115Z,14.90
2022-09-30T11:42:49.276Z,15.05
2022-09-30T11:47:53.488Z,15.40
2022-09-30T11:52:57.587Z,15.54
2022-09-30T11:58:12.064Z,15.27
2022-09-30T12:03:07.904Z,15.32
2022-09-30T12:08:08.143Z,15.39
2022-09-30T12:13:12.365Z,15.62
2022-09-30T12:18:14.604Z,15.57
2022-09-30T12:23:18.732Z,15.65
2022-09-30T12:28:22.979Z,15.84
2022-09-30T12:33:27.109Z,15.90
2022-09-30T12:38:31.224Z,15.90
2022-09-30T12:43:35.392Z,16.05
2022-09-30T12:48:39.554Z,16.34
2022-09-30T12:53:43.801Z,16.37
2022-09-30T12:58:47.847Z,16.45
2022-09-30T13:03:52.003Z,16.40
2022-09-30T13:08:56.213Z,16.58
2022-09-30T13:14:00.443Z,16.69
2022-09-30T13:19:04.512Z,16.62
2022-09-30T13:24:08.646Z,16.48
2022-09-30T13:29:12.932Z,16.49
2022-09-30T13:34:17.036Z,16.60
2022-09-30T13:39:21.148Z,16.66
2022-09-30T13:44:25.286Z,16.25
2022-09-30T13:49:29.469Z,16.38
2022-09-30T13:54:33.623Z,15.96
2022-09-30T13:59:37.780Z,15.99
2022-09-30T14:04:40.075Z,16.06
2022-09-30T14:09:44.243Z,16.21
2022-09-30T14:14:46.538Z,16.24
2022-09-30T14:19:50.625Z,16.50
2022-09-30T14:24:54.778Z,16.68
2022-09-30T14:29:58.955Z,16.69
2022-09-30T14:35:03.114Z,16.74
2022-09-30T14:40:07.253Z,16.55
2022-09-30T14:45:11.435Z,16.86
2022-09-30T14:50:15.583Z,16.86
2022-09-30T14:55:19.762Z,16.91
2022-09-30T15:00:24.007Z,16.67
2022-09-30T15:05:28.066Z,16.64
2022-09-30T15:10:32.231Z,16.64
2022-09-30T15:15:36.394Z,16.16
2022-09-30T15:20:40.575Z,16.08
2022-09-30T15:25:44.728Z,16.14
2022-09-30T15:30:48.891Z,15.91
2022-09-30T15:35:56.590Z,15.70
2022-09-30T15:40:57.197Z,15.48
2022-09-30T15:46:01.441Z,15.37
2022-09-30T15:51:05.500Z,15.46
2022-09-30T15:56:09.696Z,15.56
2022-09-30T16:01:12.005Z,15.96
2022-09-30T16:06:16.086Z,15.74
2022-09-30T16:11:18.377Z,15.65
2022-09-30T16:16:22.619Z,15.60
2022-09-30T16:21:26.705Z,16.73
2022-09-30T16:26:31.164Z,17.28
2022-09-30T16:31:35.070Z,17.34
2022-09-30T16:36:39.190Z,17.53
2022-09-30T16:41:43.353Z,16.89
2022-09-30T16:46:47.487Z,15.82
2022-09-30T16:51:51.646Z,15.12
2022-09-30T16:56:57.697Z,14.60
2022-09-30T17:02:00.004Z,14.27
2022-09-30T17:07:04.145Z,13.95
2022-09-30T17:12:08.295Z,13.58
2022-09-30T17:17:13.436Z,13.37
2022-09-30T17:22:16.642Z,13.16
2022-09-30T17:27:20.775Z,12.93
2022-09-30T17:32:24.962Z,12.66
2022-09-30T17:37:29.085Z,12.47
2022-09-30T17:42:33.246Z,12.26
2022-09-30T17:47:37.386Z,12.04
2022-09-30T17:52:41.575Z,11.79
2022-09-30T17:57:43.867Z,11.52
2022-09-30T18:02:48.120Z,11.37
2022-09-30T18:07:52.163Z,11.39
2022-09-30T18:12:54.456Z,11.42
2022-09-30T18:17:58.597Z,11.41
2022-09-30T18:23:02.797Z,11.30
2022-09-30T18:28:06.947Z,11.16
2022-09-30T18:33:11.067Z,11.09
2022-09-30T18:38:15.329Z,11.18
2022-09-30T18:43:19.481Z,11.08
2022-09-30T18:48:23.552Z,11.00
2022-09-30T18:53:27.727Z,10.92
2022-09-30T18:58:31.899Z,10.91
2022-09-30T19:03:36.041Z,11.16
2022-09-30T19:08:40.238Z,11.23
2022-09-30T19:13:44.391Z,11.21
2022-09-30T19:18:48.538Z,11.34
2022-09-30T19:23:52.696Z,11.58
2022-09-30T19:28:56.879Z,11.77
2022-09-30T19:34:01.028Z,12.00
2022-09-30T19:39:10.576Z,12.09
2022-09-30T19:44:09.360Z,12.13
2022-09-30T19:49:13.489Z,12.01
2022-09-30T19:54:17.705Z,12.08
2022-09-30T19:59:19.958Z,12.01
2022-09-30T20:04:24.086Z,12.03
2022-09-30T20:09:28.262Z,12.01
2022-09-30T20:14:32.412Z,11.96
2022-09-30T20:19:36.594Z,11.88
2022-09-30T20:24:40.750Z,11.75
2022-09-30T20:29:44.907Z,11.75
2022-09-30T20:34:49.034Z,11.76
2022-09-30T20:39:53.236Z,11.71
2022-09-30T20:44:57.376Z,11.63
2022-09-30T20:50:01.547Z,11.60
2022-09-30T20:55:05.678Z,11.68
2022-09-30T21:00:09.844Z,11.82
2022-09-30T21:05:13.994Z,11.89
2022-09-30T21:10:18.186Z,11.94
2022-09-30T21:15:22.361Z,11.86
2022-09-30T21:20:26.498Z,11.86
2022-09-30T21:25:30.653Z,11.85
2022-09-30T21:30:34.797Z,11.80
2022-09-30T21:35:38.984Z,11.81
2022-09-30T21:40:43.148Z,11.84
2022-09-30T21:45:45.458Z,11.85
2022-09-30T21:50:49.556Z,11.88
2022-09-30T21:55:53.723Z,11.93
2022-09-30T22:00:57.981Z,11.89
2022-09-30T22:06:02.018Z,11.98
2022-09-30T22:11:06.253Z,11.92
2022-09-30T22:16:11.184Z,11.98
2022-09-30T22:21:14.689Z,11.97
2022-09-30T22:26:18.929Z,12.04
2022-09-30T22:31:22.914Z,12.05
2022-09-30T22:36:27.054Z,12.16
2022-09-30T22:41:31.550Z,12.17
2022-09-30T22:46:35.330Z,12.16
2022-09-30T22:51:37.616Z,12.20
2022-09-30T22:56:41.759Z,12.32
2022-09-30T23:01:44.031Z,12.36
2022-09-30T23:06:48.196Z,12.34
2022-09-30T23:11:50.552Z,12.30
2022-09-30T23:21:58.789Z,12.32
2022-09-30T23:27:02.925Z,12.28
2022-09-30T23:32:07.183Z,12.27
2022-09-30T23:37:11.269Z,12.27
2022-09-30T23:42:15.424Z,12.27
2022-09-30T23:47:19.601Z,12.27
2022-09-30T23:52:23.729Z,12.21
2022-09-30T23:57:27.926Z,12.16
